sensor_id;sensor_type;location;lat;lon;timestamp;P1;durP1;ratioP1;P2;durP2;ratioP2
31730;SDS011;18310;55.586;12.286;2023-08-06T00:00:01;8.23;;;1.47;;
31730;SDS011;18310;55.586;12.286;2023-08-06T00:03:05;3.75;;;1.52;;
31730;SDS011;18310;55.586;12.286;2023-08-06T00:06:10;4.30;;;1.65;;
31730;SDS011;18310;55.586;12.286;2023-08-06T00:09:13;4.13;;;1.33;;
31730;SDS011;18310;55.586;12.286;2023-08-06T00:12:16;4.32;;;1.52;;
31730;SDS011;18310;55.586;12.286;2023-08-06T00:15:19;4.70;;;1.38;;
31730;SDS011;18310;55.586;12.286;2023-08-06T00:18:23;5.78;;;1.52;;
31730;SDS011;18310;55.586;12.286;2023-08-06T00:21:27;3.42;;;1.70;;
31730;SDS011;18310;55.586;12.286;2023-08-06T00:24:30;7.10;;;1.70;;
31730;SDS011;18310;55.586;12.286;2023-08-06T00:27:33;3.42;;;1.65;;
31730;SDS011;18310;55.586;12.286;2023-08-06T00:30:36;4.65;;;1.83;;
31730;SDS011;18310;55.586;12.286;2023-08-06T00:33:39;2.30;;;1.30;;
31730;SDS011;18310;55.586;12.286;2023-08-06T00:36:44;3.05;;;1.38;;
31730;SDS011;18310;55.586;12.286;2023-08-06T00:39:47;3.88;;;1.77;;
31730;SDS011;18310;55.586;12.286;2023-08-06T00:42:50;3.33;;;1.42;;
31730;SDS011;18310;55.586;12.286;2023-08-06T00:45:53;3.25;;;1.38;;
31730;SDS011;18310;55.586;12.286;2023-08-06T00:48:57;3.08;;;1.60;;
31730;SDS011;18310;55.586;12.286;2023-08-06T00:52:01;3.95;;;1.80;;
31730;SDS011;18310;55.586;12.286;2023-08-06T00:55:06;2.50;;;1.58;;
31730;SDS011;18310;55.586;12.286;2023-08-06T00:58:10;3.22;;;1.85;;
31730;SDS011;18310;55.586;12.286;2023-08-06T01:01:13;3.88;;;1.90;;
31730;SDS011;18310;55.586;12.286;2023-08-06T01:04:17;6.10;;;2.45;;
31730;SDS011;18310;55.586;12.286;2023-08-06T01:07:25;4.22;;;1.92;;
31730;SDS011;18310;55.586;12.286;2023-08-06T01:10:40;4.15;;;2.33;;
31730;SDS011;18310;55.586;12.286;2023-08-06T01:13:53;4.13;;;2.17;;
31730;SDS011;18310;55.586;12.286;2023-08-06T01:17:00;4.82;;;2.35;;
31730;SDS011;18310;55.586;12.286;2023-08-06T01:20:04;3.90;;;2.35;;
31730;SDS011;18310;55.586;12.286;2023-08-06T01:23:09;2.83;;;1.60;;
31730;SDS011;18310;55.586;12.286;2023-08-06T01:26:14;4.22;;;2.08;;
31730;SDS011;18310;55.586;12.286;2023-08-06T01:29:23;4.30;;;2.03;;
31730;SDS011;18310;55.586;12.286;2023-08-06T01:32:31;9.35;;;2.10;;
31730;SDS011;18310;55.586;12.286;2023-08-06T01:35:36;3.90;;;2.28;;
31730;SDS011;18310;55.586;12.286;2023-08-06T01:41:45;3.47;;;1.73;;
31730;SDS011;18310;55.586;12.286;2023-08-06T01:44:48;3.38;;;1.98;;
31730;SDS011;18310;55.586;12.286;2023-08-06T01:47:51;3.40;;;2.05;;
31730;SDS011;18310;55.586;12.286;2023-08-06T01:50:54;4.70;;;2.20;;
31730;SDS011;18310;55.586;12.286;2023-08-06T01:53:58;3.53;;;1.80;;
31730;SDS011;18310;55.586;12.286;2023-08-06T01:57:02;4.20;;;1.67;;
31730;SDS011;18310;55.586;12.286;2023-08-06T02:00:06;5.13;;;2.27;;
31730;SDS011;18310;55.586;12.286;2023-08-06T02:03:10;4.60;;;2.00;;
31730;SDS011;18310;55.586;12.286;2023-08-06T02:06:13;4.53;;;2.00;;
31730;SDS011;18310;55.586;12.286;2023-08-06T02:09:17;2.97;;;1.92;;
31730;SDS011;18310;55.586;12.286;2023-08-06T02:12:21;7.10;;;2.03;;
31730;SDS011;18310;55.586;12.286;2023-08-06T02:15:24;3.00;;;1.58;;
31730;SDS011;18310;55.586;12.286;2023-08-06T02:18:28;2.80;;;1.55;;
31730;SDS011;18310;55.586;12.286;2023-08-06T02:21:31;5.18;;;2.00;;
31730;SDS011;18310;55.586;12.286;2023-08-06T02:24:35;3.30;;;2.10;;
31730;SDS011;18310;55.586;12.286;2023-08-06T02:27:38;4.43;;;1.92;;
31730;SDS011;18310;55.586;12.286;2023-08-06T02:30:49;3.50;;;1.73;;
31730;SDS011;18310;55.586;12.286;2023-08-06T02:33:52;5.03;;;1.75;;
31730;SDS011;18310;55.586;12.286;2023-08-06T02:36:56;2.72;;;1.73;;
31730;SDS011;18310;55.586;12.286;2023-08-06T02:40:00;4.68;;;1.52;;
31730;SDS011;18310;55.586;12.286;2023-08-06T02:43:04;4.10;;;1.77;;
31730;SDS011;18310;55.586;12.286;2023-08-06T02:46:07;3.87;;;1.73;;
31730;SDS011;18310;55.586;12.286;2023-08-06T02:49:10;3.97;;;1.77;;
31730;SDS011;18310;55.586;12.286;2023-08-06T02:52:13;2.67;;;1.48;;
31730;SDS011;18310;55.586;12.286;2023-08-06T02:55:18;3.45;;;1.50;;
31730;SDS011;18310;55.586;12.286;2023-08-06T02:58:21;3.90;;;1.92;;
31730;SDS011;18310;55.586;12.286;2023-08-06T03:01:24;2.80;;;1.20;;
31730;SDS011;18310;55.586;12.286;2023-08-06T03:04:28;3.22;;;1.83;;
31730;SDS011;18310;55.586;12.286;2023-08-06T03:07:31;5.05;;;1.73;;
31730;SDS011;18310;55.586;12.286;2023-08-06T03:10:39;3.05;;;1.70;;
31730;SDS011;18310;55.586;12.286;2023-08-06T03:13:44;3.08;;;1.55;;
31730;SDS011;18310;55.586;12.286;2023-08-06T03:16:48;4.95;;;1.40;;
31730;SDS011;18310;55.586;12.286;2023-08-06T03:19:51;4.38;;;2.00;;
31730;SDS011;18310;55.586;12.286;2023-08-06T03:22:54;4.60;;;1.47;;
31730;SDS011;18310;55.586;12.286;2023-08-06T03:26:02;3.15;;;1.67;;
31730;SDS011;18310;55.586;12.286;2023-08-06T03:29:05;2.95;;;1.55;;
31730;SDS011;18310;55.586;12.286;2023-08-06T03:32:08;3.75;;;1.60;;
31730;SDS011;18310;55.586;12.286;2023-08-06T03:35:11;5.45;;;1.75;;
31730;SDS011;18310;55.586;12.286;2023-08-06T03:38:14;2.70;;;1.52;;
31730;SDS011;18310;55.586;12.286;2023-08-06T03:41:19;3.20;;;1.83;;
31730;SDS011;18310;55.586;12.286;2023-08-06T03:44:22;3.50;;;1.77;;
31730;SDS011;18310;55.586;12.286;2023-08-06T03:47:25;4.10;;;1.40;;
31730;SDS011;18310;55.586;12.286;2023-08-06T03:50:28;3.70;;;1.90;;
31730;SDS011;18310;55.586;12.286;2023-08-06T03:53:32;3.85;;;1.90;;
31730;SDS011;18310;55.586;12.286;2023-08-06T03:56:37;3.97;;;1.85;;
31730;SDS011;18310;55.586;12.286;2023-08-06T03:59:40;4.72;;;1.90;;
31730;SDS011;18310;55.586;12.286;2023-08-06T04:02:44;4.75;;;1.63;;
31730;SDS011;18310;55.586;12.286;2023-08-06T04:05:47;7.00;;;1.87;;
31730;SDS011;18310;55.586;12.286;2023-08-06T04:08:50;3.95;;;2.17;;
31730;SDS011;18310;55.586;12.286;2023-08-06T04:11:55;3.22;;;1.67;;
31730;SDS011;18310;55.586;12.286;2023-08-06T04:15:00;5.50;;;2.13;;
31730;SDS011;18310;55.586;12.286;2023-08-06T04:18:04;6.10;;;2.22;;
31730;SDS011;18310;55.586;12.286;2023-08-06T04:21:07;3.83;;;2.33;;
31730;SDS011;18310;55.586;12.286;2023-08-06T04:24:10;6.97;;;2.20;;
31730;SDS011;18310;55.586;12.286;2023-08-06T04:27:15;3.30;;;2.25;;
31730;SDS011;18310;55.586;12.286;2023-08-06T04:30:19;4.35;;;2.15;;
31730;SDS011;18310;55.586;12.286;2023-08-06T04:33:22;7.73;;;2.50;;
31730;SDS011;18310;55.586;12.286;2023-08-06T04:36:25;4.60;;;2.20;;
31730;SDS011;18310;55.586;12.286;2023-08-06T04:39:29;4.23;;;2.07;;
31730;SDS011;18310;55.586;12.286;2023-08-06T04:42:33;3.83;;;1.77;;
31730;SDS011;18310;55.586;12.286;2023-08-06T04:45:36;4.47;;;2.40;;
31730;SDS011;18310;55.586;12.286;2023-08-06T04:48:40;3.97;;;2.00;;
31730;SDS011;18310;55.586;12.286;2023-08-06T04:51:43;6.60;;;1.95;;
31730;SDS011;18310;55.586;12.286;2023-08-06T04:54:46;4.50;;;2.23;;
31730;SDS011;18310;55.586;12.286;2023-08-06T04:57:50;4.15;;;2.00;;
31730;SDS011;18310;55.586;12.286;2023-08-06T05:00:53;7.97;;;1.73;;
31730;SDS011;18310;55.586;12.286;2023-08-06T05:03:56;4.55;;;1.88;;
31730;SDS011;18310;55.586;12.286;2023-08-06T05:06:59;4.22;;;2.22;;
31730;SDS011;18310;55.586;12.286;2023-08-06T05:10:03;5.35;;;1.75;;
31730;SDS011;18310;55.586;12.286;2023-08-06T05:13:08;4.50;;;2.10;;
31730;SDS011;18310;55.586;12.286;2023-08-06T05:16:11;4.05;;;2.10;;
31730;SDS011;18310;55.586;12.286;2023-08-06T05:19:14;3.08;;;1.73;;
31730;SDS011;18310;55.586;12.286;2023-08-06T05:22:17;3.80;;;1.90;;
31730;SDS011;18310;55.586;12.286;2023-08-06T05:25:20;5.93;;;2.10;;
31730;SDS011;18310;55.586;12.286;2023-08-06T05:28:25;4.35;;;2.08;;
31730;SDS011;18310;55.586;12.286;2023-08-06T05:31:28;2.85;;;1.55;;
31730;SDS011;18310;55.586;12.286;2023-08-06T05:34:31;5.00;;;2.17;;
31730;SDS011;18310;55.586;12.286;2023-08-06T05:37:34;2.70;;;1.70;;
31730;SDS011;18310;55.586;12.286;2023-08-06T05:40:37;3.00;;;1.70;;
31730;SDS011;18310;55.586;12.286;2023-08-06T05:43:43;4.93;;;1.90;;
31730;SDS011;18310;55.586;12.286;2023-08-06T05:46:46;3.63;;;1.80;;
31730;SDS011;18310;55.586;12.286;2023-08-06T05:49:49;5.53;;;1.77;;
31730;SDS011;18310;55.586;12.286;2023-08-06T05:52:53;3.03;;;1.60;;
31730;SDS011;18310;55.586;12.286;2023-08-06T05:55:56;4.27;;;1.57;;
31730;SDS011;18310;55.586;12.286;2023-08-06T05:59:00;3.10;;;1.50;;
31730;SDS011;18310;55.586;12.286;2023-08-06T06:02:04;3.30;;;1.80;;
31730;SDS011;18310;55.586;12.286;2023-08-06T06:05:07;3.38;;;1.50;;
31730;SDS011;18310;55.586;12.286;2023-08-06T06:08:11;3.90;;;1.30;;
31730;SDS011;18310;55.586;12.286;2023-08-06T06:11:14;3.40;;;1.35;;
31730;SDS011;18310;55.586;12.286;2023-08-06T06:14:18;1.95;;;1.02;;
31730;SDS011;18310;55.586;12.286;2023-08-06T06:17:21;2.28;;;1.02;;
31730;SDS011;18310;55.586;12.286;2023-08-06T06:20:25;5.80;;;1.33;;
31730;SDS011;18310;55.586;12.286;2023-08-06T06:23:28;5.45;;;1.30;;
31730;SDS011;18310;55.586;12.286;2023-08-06T06:26:31;2.97;;;1.00;;
31730;SDS011;18310;55.586;12.286;2023-08-06T06:29:36;3.90;;;1.33;;
31730;SDS011;18310;55.586;12.286;2023-08-06T06:32:39;3.28;;;1.13;;
31730;SDS011;18310;55.586;12.286;2023-08-06T06:35:42;7.60;;;1.63;;
31730;SDS011;18310;55.586;12.286;2023-08-06T06:38:46;5.32;;;1.20;;
31730;SDS011;18310;55.586;12.286;2023-08-06T06:41:49;2.83;;;1.30;;
31730;SDS011;18310;55.586;12.286;2023-08-06T06:44:54;4.95;;;1.48;;
31730;SDS011;18310;55.586;12.286;2023-08-06T06:47:57;6.60;;;1.65;;
31730;SDS011;18310;55.586;12.286;2023-08-06T06:51:00;2.90;;;1.40;;
31730;SDS011;18310;55.586;12.286;2023-08-06T06:57:07;3.63;;;1.40;;
31730;SDS011;18310;55.586;12.286;2023-08-06T07:00:12;5.47;;;1.42;;
31730;SDS011;18310;55.586;12.286;2023-08-06T07:03:40;2.35;;;1.05;;
31730;SDS011;18310;55.586;12.286;2023-08-06T07:06:44;3.25;;;1.40;;
31730;SDS011;18310;55.586;12.286;2023-08-06T07:09:47;1.80;;;0.90;;
31730;SDS011;18310;55.586;12.286;2023-08-06T07:12:50;3.17;;;1.20;;
31730;SDS011;18310;55.586;12.286;2023-08-06T07:15:53;3.95;;;1.40;;
31730;SDS011;18310;55.586;12.286;2023-08-06T07:18:58;2.65;;;1.10;;
31730;SDS011;18310;55.586;12.286;2023-08-06T07:22:01;2.90;;;1.20;;
31730;SDS011;18310;55.586;12.286;2023-08-06T07:25:05;2.30;;;0.77;;
31730;SDS011;18310;55.586;12.286;2023-08-06T07:28:09;2.53;;;1.13;;
31730;SDS011;18310;55.586;12.286;2023-08-06T07:31:12;3.88;;;1.33;;
31730;SDS011;18310;55.586;12.286;2023-08-06T07:34:17;2.97;;;1.10;;
31730;SDS011;18310;55.586;12.286;2023-08-06T07:37:20;3.05;;;1.13;;
31730;SDS011;18310;55.586;12.286;2023-08-06T07:40:23;2.37;;;1.10;;
31730;SDS011;18310;55.586;12.286;2023-08-06T07:43:27;3.05;;;1.17;;
31730;SDS011;18310;55.586;12.286;2023-08-06T07:46:30;3.63;;;1.05;;
31730;SDS011;18310;55.586;12.286;2023-08-06T07:49:35;2.10;;;1.20;;
31730;SDS011;18310;55.586;12.286;2023-08-06T07:52:38;4.55;;;1.23;;
31730;SDS011;18310;55.586;12.286;2023-08-06T07:55:41;3.58;;;1.10;;
31730;SDS011;18310;55.586;12.286;2023-08-06T07:58:47;3.65;;;1.00;;
31730;SDS011;18310;55.586;12.286;2023-08-06T08:03:13;3.20;;;1.25;;
31730;SDS011;18310;55.586;12.286;2023-08-06T08:06:17;3.88;;;1.17;;
31730;SDS011;18310;55.586;12.286;2023-08-06T08:09:20;1.88;;;0.88;;
31730;SDS011;18310;55.586;12.286;2023-08-06T08:12:23;2.28;;;1.00;;
31730;SDS011;18310;55.586;12.286;2023-08-06T08:15:27;4.13;;;1.40;;
31730;SDS011;18310;55.586;12.286;2023-08-06T08:18:32;6.13;;;1.50;;
31730;SDS011;18310;55.586;12.286;2023-08-06T08:21:35;2.50;;;1.13;;
31730;SDS011;18310;55.586;12.286;2023-08-06T08:24:38;3.00;;;1.30;;
31730;SDS011;18310;55.586;12.286;2023-08-06T08:27:41;5.50;;;1.03;;
31730;SDS011;18310;55.586;12.286;2023-08-06T08:30:44;5.75;;;1.52;;
31730;SDS011;18310;55.586;12.286;2023-08-06T08:33:48;1.90;;;0.90;;
31730;SDS011;18310;55.586;12.286;2023-08-06T08:36:55;4.22;;;1.27;;
31730;SDS011;18310;55.586;12.286;2023-08-06T08:39:58;1.85;;;1.00;;
31730;SDS011;18310;55.586;12.286;2023-08-06T08:43:02;3.88;;;1.17;;
31730;SDS011;18310;55.586;12.286;2023-08-06T08:46:06;2.63;;;1.00;;
31730;SDS011;18310;55.586;12.286;2023-08-06T08:49:14;2.38;;;1.02;;
31730;SDS011;18310;55.586;12.286;2023-08-06T08:52:17;5.03;;;1.08;;
31730;SDS011;18310;55.586;12.286;2023-08-06T08:58:31;2.95;;;0.82;;
31730;SDS011;18310;55.586;12.286;2023-08-06T09:01:35;1.45;;;0.80;;
31730;SDS011;18310;55.586;12.286;2023-08-06T09:04:40;2.35;;;0.80;;
31730;SDS011;18310;55.586;12.286;2023-08-06T09:07:46;2.33;;;0.90;;
31730;SDS011;18310;55.586;12.286;2023-08-06T09:10:51;2.40;;;0.90;;
31730;SDS011;18310;55.586;12.286;2023-08-06T09:13:57;5.07;;;0.85;;
31730;SDS011;18310;55.586;12.286;2023-08-06T09:17:01;1.60;;;0.73;;
31730;SDS011;18310;55.586;12.286;2023-08-06T09:20:10;3.58;;;1.13;;
31730;SDS011;18310;55.586;12.286;2023-08-06T09:23:14;2.78;;;0.80;;
31730;SDS011;18310;55.586;12.286;2023-08-06T09:26:17;2.40;;;0.95;;
31730;SDS011;18310;55.586;12.286;2023-08-06T09:29:22;4.15;;;1.35;;
31730;SDS011;18310;55.586;12.286;2023-08-06T09:32:25;1.85;;;0.82;;
31730;SDS011;18310;55.586;12.286;2023-08-06T09:35:28;2.40;;;1.08;;
31730;SDS011;18310;55.586;12.286;2023-08-06T09:41:39;1.70;;;0.80;;
31730;SDS011;18310;55.586;12.286;2023-08-06T09:44:44;3.73;;;1.20;;
31730;SDS011;18310;55.586;12.286;2023-08-06T09:47:47;3.15;;;1.10;;
31730;SDS011;18310;55.586;12.286;2023-08-06T09:50:50;2.35;;;1.00;;
31730;SDS011;18310;55.586;12.286;2023-08-06T09:53:56;2.47;;;1.08;;
31730;SDS011;18310;55.586;12.286;2023-08-06T09:57:00;2.58;;;1.17;;
31730;SDS011;18310;55.586;12.286;2023-08-06T10:00:05;3.00;;;1.30;;
31730;SDS011;18310;55.586;12.286;2023-08-06T10:03:12;2.80;;;1.20;;
31730;SDS011;18310;55.586;12.286;2023-08-06T10:09:19;4.30;;;1.40;;
31730;SDS011;18310;55.586;12.286;2023-08-06T10:12:24;5.05;;;1.67;;
31730;SDS011;18310;55.586;12.286;2023-08-06T10:15:31;3.15;;;1.30;;
31730;SDS011;18310;55.586;12.286;2023-08-06T10:18:35;3.78;;;1.52;;
31730;SDS011;18310;55.586;12.286;2023-08-06T10:21:39;5.53;;;1.40;;
31730;SDS011;18310;55.586;12.286;2023-08-06T10:24:46;3.50;;;1.50;;
31730;SDS011;18310;55.586;12.286;2023-08-06T10:27:53;12.30;;;1.70;;
31730;SDS011;18310;55.586;12.286;2023-08-06T10:30:59;5.63;;;1.35;;
31730;SDS011;18310;55.586;12.286;2023-08-06T10:34:02;2.83;;;1.42;;
31730;SDS011;18310;55.586;12.286;2023-08-06T10:37:05;5.28;;;1.98;;
31730;SDS011;18310;55.586;12.286;2023-08-06T10:40:08;4.05;;;1.95;;
31730;SDS011;18310;55.586;12.286;2023-08-06T10:43:25;2.75;;;1.33;;
31730;SDS011;18310;55.586;12.286;2023-08-06T10:46:31;3.17;;;1.58;;
31730;SDS011;18310;55.586;12.286;2023-08-06T10:49:34;7.68;;;1.67;;
31730;SDS011;18310;55.586;12.286;2023-08-06T10:52:37;3.97;;;1.83;;
31730;SDS011;18310;55.586;12.286;2023-08-06T10:55:40;7.13;;;1.55;;
31730;SDS011;18310;55.586;12.286;2023-08-06T10:58:44;6.10;;;1.47;;
31730;SDS011;18310;55.586;12.286;2023-08-06T11:01:49;4.22;;;1.65;;
31730;SDS011;18310;55.586;12.286;2023-08-06T11:04:53;4.15;;;1.50;;
31730;SDS011;18310;55.586;12.286;2023-08-06T11:07:56;3.97;;;1.58;;
31730;SDS011;18310;55.586;12.286;2023-08-06T11:11:07;4.77;;;1.90;;
31730;SDS011;18310;55.586;12.286;2023-08-06T11:14:14;3.47;;;1.58;;
31730;SDS011;18310;55.586;12.286;2023-08-06T11:17:20;4.75;;;1.65;;
31730;SDS011;18310;55.586;12.286;2023-08-06T11:20:23;4.97;;;1.60;;
31730;SDS011;18310;55.586;12.286;2023-08-06T11:23:27;4.95;;;1.70;;
31730;SDS011;18310;55.586;12.286;2023-08-06T11:26:31;2.63;;;1.23;;
31730;SDS011;18310;55.586;12.286;2023-08-06T11:29:36;6.00;;;1.90;;
31730;SDS011;18310;55.586;12.286;2023-08-06T11:32:46;3.25;;;1.60;;
31730;SDS011;18310;55.586;12.286;2023-08-06T11:35:50;5.35;;;1.52;;
31730;SDS011;18310;55.586;12.286;2023-08-06T11:38:53;5.23;;;1.77;;
31730;SDS011;18310;55.586;12.286;2023-08-06T11:41:56;3.60;;;1.98;;
31730;SDS011;18310;55.586;12.286;2023-08-06T11:45:02;6.18;;;1.75;;
31730;SDS011;18310;55.586;12.286;2023-08-06T11:48:07;11.90;;;1.60;;
31730;SDS011;18310;55.586;12.286;2023-08-06T11:51:11;5.72;;;1.50;;
31730;SDS011;18310;55.586;12.286;2023-08-06T11:54:16;3.30;;;1.48;;
31730;SDS011;18310;55.586;12.286;2023-08-06T11:57:35;4.82;;;1.38;;
31730;SDS011;18310;55.586;12.286;2023-08-06T12:00:39;5.38;;;1.35;;
31730;SDS011;18310;55.586;12.286;2023-08-06T12:03:46;7.63;;;1.48;;
31730;SDS011;18310;55.586;12.286;2023-08-06T12:06:49;3.40;;;1.27;;
31730;SDS011;18310;55.586;12.286;2023-08-06T12:09:52;4.27;;;1.60;;
31730;SDS011;18310;55.586;12.286;2023-08-06T12:12:55;3.90;;;1.55;;
31730;SDS011;18310;55.586;12.286;2023-08-06T12:15:58;5.80;;;2.05;;
31730;SDS011;18310;55.586;12.286;2023-08-06T12:19:03;3.60;;;1.23;;
31730;SDS011;18310;55.586;12.286;2023-08-06T12:22:06;9.50;;;1.90;;
31730;SDS011;18310;55.586;12.286;2023-08-06T12:25:10;8.07;;;1.80;;
31730;SDS011;18310;55.586;12.286;2023-08-06T12:28:14;4.20;;;1.73;;
31730;SDS011;18310;55.586;12.286;2023-08-06T12:31:18;3.40;;;1.80;;
31730;SDS011;18310;55.586;12.286;2023-08-06T12:34:22;5.00;;;1.80;;
31730;SDS011;18310;55.586;12.286;2023-08-06T12:37:29;5.47;;;1.70;;
31730;SDS011;18310;55.586;12.286;2023-08-06T12:40:33;6.10;;;1.60;;
31730;SDS011;18310;55.586;12.286;2023-08-06T12:43:40;5.05;;;1.40;;
31730;SDS011;18310;55.586;12.286;2023-08-06T12:46:44;3.13;;;1.50;;
31730;SDS011;18310;55.586;12.286;2023-08-06T12:49:48;3.93;;;1.67;;
31730;SDS011;18310;55.586;12.286;2023-08-06T12:52:52;4.03;;;1.58;;
31730;SDS011;18310;55.586;12.286;2023-08-06T12:55:55;3.15;;;1.55;;
31730;SDS011;18310;55.586;12.286;2023-08-06T12:58:58;4.22;;;1.15;;
31730;SDS011;18310;55.586;12.286;2023-08-06T13:02:01;2.77;;;1.30;;
31730;SDS011;18310;55.586;12.286;2023-08-06T13:05:06;2.58;;;1.10;;
31730;SDS011;18310;55.586;12.286;2023-08-06T13:08:10;3.03;;;1.50;;
31730;SDS011;18310;55.586;12.286;2023-08-06T13:11:14;2.67;;;1.27;;
31730;SDS011;18310;55.586;12.286;2023-08-06T13:14:17;2.85;;;1.17;;
31730;SDS011;18310;55.586;12.286;2023-08-06T13:17:20;4.63;;;1.47;;
31730;SDS011;18310;55.586;12.286;2023-08-06T13:20:24;5.32;;;1.88;;
31730;SDS011;18310;55.586;12.286;2023-08-06T13:23:28;4.03;;;1.40;;
31730;SDS011;18310;55.586;12.286;2023-08-06T13:26:31;5.17;;;1.57;;
31730;SDS011;18310;55.586;12.286;2023-08-06T13:29:35;4.33;;;1.00;;
31730;SDS011;18310;55.586;12.286;2023-08-06T13:32:38;3.30;;;1.40;;
31730;SDS011;18310;55.586;12.286;2023-08-06T13:35:42;2.57;;;1.10;;
31730;SDS011;18310;55.586;12.286;2023-08-06T13:38:45;2.35;;;0.82;;
31730;SDS011;18310;55.586;12.286;2023-08-06T13:41:48;2.92;;;1.30;;
31730;SDS011;18310;55.586;12.286;2023-08-06T13:44:52;2.40;;;1.43;;
31730;SDS011;18310;55.586;12.286;2023-08-06T13:48:01;2.65;;;1.10;;
31730;SDS011;18310;55.586;12.286;2023-08-06T13:51:06;2.78;;;1.20;;
31730;SDS011;18310;55.586;12.286;2023-08-06T13:54:10;3.88;;;1.25;;
31730;SDS011;18310;55.586;12.286;2023-08-06T13:57:13;3.07;;;0.90;;
31730;SDS011;18310;55.586;12.286;2023-08-06T14:00:16;2.30;;;1.10;;
31730;SDS011;18310;55.586;12.286;2023-08-06T14:03:19;3.25;;;1.20;;
31730;SDS011;18310;55.586;12.286;2023-08-06T14:06:23;5.23;;;1.47;;
31730;SDS011;18310;55.586;12.286;2023-08-06T14:09:26;2.88;;;1.40;;
31730;SDS011;18310;55.586;12.286;2023-08-06T14:15:34;3.35;;;1.30;;
31730;SDS011;18310;55.586;12.286;2023-08-06T14:18:37;2.15;;;1.20;;
31730;SDS011;18310;55.586;12.286;2023-08-06T14:21:42;4.65;;;1.80;;
31730;SDS011;18310;55.586;12.286;2023-08-06T14:24:45;4.13;;;1.67;;
31730;SDS011;18310;55.586;12.286;2023-08-06T14:27:48;5.32;;;1.75;;
31730;SDS011;18310;55.586;12.286;2023-08-06T14:30:52;7.43;;;1.33;;
31730;SDS011;18310;55.586;12.286;2023-08-06T14:33:58;3.20;;;1.40;;
31730;SDS011;18310;55.586;12.286;2023-08-06T14:37:03;5.88;;;1.75;;
31730;SDS011;18310;55.586;12.286;2023-08-06T14:40:06;2.67;;;1.27;;
31730;SDS011;18310;55.586;12.286;2023-08-06T14:43:10;5.80;;;1.55;;
31730;SDS011;18310;55.586;12.286;2023-08-06T14:46:16;4.20;;;1.70;;
31730;SDS011;18310;55.586;12.286;2023-08-06T14:49:19;4.55;;;1.50;;
31730;SDS011;18310;55.586;12.286;2023-08-06T14:52:45;3.03;;;1.42;;
31730;SDS011;18310;55.586;12.286;2023-08-06T14:55:49;4.30;;;1.48;;
31730;SDS011;18310;55.586;12.286;2023-08-06T14:58:52;3.50;;;1.33;;
31730;SDS011;18310;55.586;12.286;2023-08-06T15:01:55;2.03;;;1.05;;
31730;SDS011;18310;55.586;12.286;2023-08-06T15:04:58;4.10;;;1.48;;
31730;SDS011;18310;55.586;12.286;2023-08-06T15:08:03;5.07;;;1.47;;
31730;SDS011;18310;55.586;12.286;2023-08-06T15:11:06;5.45;;;1.55;;
31730;SDS011;18310;55.586;12.286;2023-08-06T15:17:13;3.90;;;1.65;;
31730;SDS011;18310;55.586;12.286;2023-08-06T15:20:16;4.00;;;1.40;;
31730;SDS011;18310;55.586;12.286;2023-08-06T15:23:21;2.30;;;1.00;;
31730;SDS011;18310;55.586;12.286;2023-08-06T15:26:24;2.63;;;1.23;;
31730;SDS011;18310;55.586;12.286;2023-08-06T15:29:27;3.35;;;1.60;;
31730;SDS011;18310;55.586;12.286;2023-08-06T15:32:31;4.13;;;1.33;;
31730;SDS011;18310;55.586;12.286;2023-08-06T15:35:34;3.17;;;1.23;;
31730;SDS011;18310;55.586;12.286;2023-08-06T15:38:38;3.85;;;1.40;;
31730;SDS011;18310;55.586;12.286;2023-08-06T15:41:41;4.28;;;1.42;;
31730;SDS011;18310;55.586;12.286;2023-08-06T15:44:45;3.60;;;1.40;;
31730;SDS011;18310;55.586;12.286;2023-08-06T15:47:48;3.13;;;1.43;;
31730;SDS011;18310;55.586;12.286;2023-08-06T15:50:51;2.95;;;1.33;;
31730;SDS011;18310;55.586;12.286;2023-08-06T15:53:56;4.70;;;1.50;;
31730;SDS011;18310;55.586;12.286;2023-08-06T15:56:59;6.80;;;1.95;;
31730;SDS011;18310;55.586;12.286;2023-08-06T16:00:03;3.33;;;1.40;;
31730;SDS011;18310;55.586;12.286;2023-08-06T16:06:31;6.82;;;1.75;;
31730;SDS011;18310;55.586;12.286;2023-08-06T16:09:35;10.18;;;2.30;;
31730;SDS011;18310;55.586;12.286;2023-08-06T16:12:38;4.25;;;1.58;;
31730;SDS011;18310;55.586;12.286;2023-08-06T16:15:41;4.15;;;1.45;;
31730;SDS011;18310;55.586;12.286;2023-08-06T16:18:45;3.78;;;1.50;;
31730;SDS011;18310;55.586;12.286;2023-08-06T16:21:50;3.37;;;1.40;;
31730;SDS011;18310;55.586;12.286;2023-08-06T16:24:53;5.13;;;1.40;;
31730;SDS011;18310;55.586;12.286;2023-08-06T16:27:56;4.57;;;1.88;;
31730;SDS011;18310;55.586;12.286;2023-08-06T16:31:00;4.80;;;1.80;;
31730;SDS011;18310;55.586;12.286;2023-08-06T16:34:03;3.70;;;1.77;;
31730;SDS011;18310;55.586;12.286;2023-08-06T16:37:08;5.80;;;1.50;;
31730;SDS011;18310;55.586;12.286;2023-08-06T16:40:11;3.50;;;1.80;;
31730;SDS011;18310;55.586;12.286;2023-08-06T16:43:14;3.28;;;1.48;;
31730;SDS011;18310;55.586;12.286;2023-08-06T16:46:18;4.97;;;1.40;;
31730;SDS011;18310;55.586;12.286;2023-08-06T16:49:21;4.20;;;1.40;;
31730;SDS011;18310;55.586;12.286;2023-08-06T16:52:26;7.90;;;1.65;;
31730;SDS011;18310;55.586;12.286;2023-08-06T16:55:30;5.38;;;1.50;;
31730;SDS011;18310;55.586;12.286;2023-08-06T16:58:33;5.57;;;1.80;;
31730;SDS011;18310;55.586;12.286;2023-08-06T17:01:36;2.80;;;1.20;;
31730;SDS011;18310;55.586;12.286;2023-08-06T17:04:43;3.38;;;1.45;;
31730;SDS011;18310;55.586;12.286;2023-08-06T17:07:48;4.80;;;1.42;;
31730;SDS011;18310;55.586;12.286;2023-08-06T17:10:51;4.68;;;1.83;;
31730;SDS011;18310;55.586;12.286;2023-08-06T17:13:55;3.87;;;1.40;;
31730;SDS011;18310;55.586;12.286;2023-08-06T17:16:58;3.00;;;1.63;;
31730;SDS011;18310;55.586;12.286;2023-08-06T17:20:01;4.03;;;1.50;;
31730;SDS011;18310;55.586;12.286;2023-08-06T17:23:05;2.95;;;1.30;;
31730;SDS011;18310;55.586;12.286;2023-08-06T17:26:09;3.63;;;1.10;;
31730;SDS011;18310;55.586;12.286;2023-08-06T17:29:20;2.95;;;1.27;;
31730;SDS011;18310;55.586;12.286;2023-08-06T17:32:23;3.17;;;1.23;;
31730;SDS011;18310;55.586;12.286;2023-08-06T17:35:26;6.00;;;1.33;;
31730;SDS011;18310;55.586;12.286;2023-08-06T17:38:32;6.35;;;1.20;;
31730;SDS011;18310;55.586;12.286;2023-08-06T17:41:35;3.05;;;1.10;;
31730;SDS011;18310;55.586;12.286;2023-08-06T17:44:39;2.83;;;1.33;;
31730;SDS011;18310;55.586;12.286;2023-08-06T17:47:42;5.23;;;1.33;;
31730;SDS011;18310;55.586;12.286;2023-08-06T17:50:49;5.20;;;1.13;;
31730;SDS011;18310;55.586;12.286;2023-08-06T17:53:54;4.60;;;1.30;;
31730;SDS011;18310;55.586;12.286;2023-08-06T17:56:57;2.67;;;1.20;;
31730;SDS011;18310;55.586;12.286;2023-08-06T18:00:01;3.28;;;1.30;;
31730;SDS011;18310;55.586;12.286;2023-08-06T18:03:04;6.57;;;1.80;;
31730;SDS011;18310;55.586;12.286;2023-08-06T18:06:07;2.95;;;1.40;;
31730;SDS011;18310;55.586;12.286;2023-08-06T18:09:12;7.53;;;1.42;;
31730;SDS011;18310;55.586;12.286;2023-08-06T18:12:15;2.88;;;1.20;;
31730;SDS011;18310;55.586;12.286;2023-08-06T18:15:18;4.60;;;1.27;;
31730;SDS011;18310;55.586;12.286;2023-08-06T18:18:22;3.55;;;1.13;;
31730;SDS011;18310;55.586;12.286;2023-08-06T18:21:25;2.95;;;1.13;;
31730;SDS011;18310;55.586;12.286;2023-08-06T18:24:30;3.35;;;1.40;;
31730;SDS011;18310;55.586;12.286;2023-08-06T18:27:33;2.63;;;1.30;;
31730;SDS011;18310;55.586;12.286;2023-08-06T18:30:36;2.53;;;1.00;;
31730;SDS011;18310;55.586;12.286;2023-08-06T18:33:45;5.78;;;1.33;;
31730;SDS011;18310;55.586;12.286;2023-08-06T18:36:48;3.33;;;1.40;;